createdAt,value
2023-01-02T00:01:45.111Z,100623.66
2023-01-02T00:04:13.527Z,100618.19
2023-01-02T00:06:41.914Z,100619.84
2023-01-02T00:09:10.484Z,100612.06
2023-01-02T00:11:38.929Z,100607.72
2023-01-02T00:14:07.538Z,100610.38
2023-01-02T00:16:36.067Z,100601.13
2023-01-02T00:19:07.077Z,100608.13
2023-01-02T00:21:35.632Z,100598.50
2023-01-02T00:24:04.211Z,100609.50
2023-01-02T00:26:32.759Z,100617.47
2023-01-02T00:29:02.478Z,100613.13
2023-01-02T00:31:31.202Z,100632.13
2023-01-02T00:34:00.304Z,100622.78
2023-01-02T00:36:30.365Z,100628.78
2023-01-02T00:38:59.197Z,100622.47
2023-01-02T00:41:28.117Z,100613.13
2023-01-02T00:43:56.662Z,100615.22
2023-01-02T00:46:25.247Z,100594.84
2023-01-02T00:48:53.850Z,100604.31
2023-01-02T00:51:22.309Z,100593.88
2023-01-02T00:53:52.360Z,100591.34
2023-01-02T00:56:20.987Z,100596.53
2023-01-02T00:58:49.471Z,100592.19
2023-01-02T01:01:18.313Z,100587.41
2023-01-02T01:03:46.951Z,100580.72
2023-01-02T01:06:15.896Z,100583.06
2023-01-02T01:08:44.946Z,100575.56
2023-01-02T01:11:17.519Z,100574.28
2023-01-02T01:13:46.515Z,100585.72
2023-01-02T01:16:16.936Z,100590.53
2023-01-02T01:18:45.962Z,100599.47
2023-01-02T01:21:16.848Z,100591.34
2023-01-02T01:23:46.203Z,100565.84
2023-01-02T01:26:16.854Z,100586.03
2023-01-02T01:28:45.379Z,100569.59
2023-01-02T01:31:15.603Z,100568.44
2023-01-02T01:33:45.054Z,100545.91
2023-01-02T01:36:15.993Z,100574.91
2023-01-02T01:38:45.475Z,100573.22
2023-01-02T01:41:17.523Z,100579.44
2023-01-02T01:43:50.318Z,100564.63
2023-01-02T01:46:25.204Z,100577.28
2023-01-02T01:49:00.393Z,100570.88
2023-01-02T01:51:31.203Z,100560.00
2023-01-02T01:54:06.701Z,100563.41
2023-01-02T01:56:39.739Z,100553.06
2023-01-02T01:59:10.797Z,100558.44
2023-01-02T02:01:40.651Z,100551.59
2023-01-02T02:04:10.718Z,100555.38
2023-01-02T02:06:39.727Z,100555.91
2023-01-02T02:09:13.905Z,100544.78
2023-01-02T02:11:44.284Z,100540.06
2023-01-02T02:14:12.948Z,100553.53
2023-01-02T02:16:47.892Z,100553.53
2023-01-02T02:20:00.474Z,100542.25
2023-01-02T02:23:03.571Z,100550.19
2023-01-02T02:26:24.301Z,100544.22
2023-01-02T02:29:25.472Z,100534.34
2023-01-02T02:32:03.492Z,100517.19
2023-01-02T02:34:39.827Z,100510.75
2023-01-02T02:37:16.069Z,100523.34
2023-01-02T02:39:56.114Z,100525.44
2023-01-02T02:42:37.751Z,100540.94
2023-01-02T02:45:12.053Z,100538.66
2023-01-02T02:47:50.641Z,100544.50
2023-01-02T02:50:24.975Z,100550.50
2023-01-02T02:53:00.110Z,100538.09
2023-01-02T02:55:32.609Z,100530.84
2023-01-02T02:58:02.834Z,100531.00
2023-01-02T03:00:31.384Z,100530.75
2023-01-02T03:03:01.514Z,100533.38
2023-01-02T03:05:36.900Z,100528.91
2023-01-02T03:08:12.949Z,100529.91
2023-01-02T03:10:48.178Z,100517.53
2023-01-02T03:13:24.177Z,100525.63
2023-01-02T03:16:01.938Z,100513.09
2023-01-02T03:18:37.425Z,100504.59
2023-01-02T03:21:10.668Z,100499.31
2023-01-02T03:23:44.738Z,100496.41
2023-01-02T03:26:16.984Z,100500.06
2023-01-02T03:28:50.449Z,100492.81
2023-01-02T03:31:21.615Z,100499.22
2023-01-02T03:33:54.633Z,100509.53
2023-01-02T03:36:26.461Z,100503.69
2023-01-02T03:39:02.117Z,100496.41
2023-01-02T03:41:34.994Z,100492.78
2023-01-02T03:44:05.849Z,100492.91
2023-01-02T03:46:39.964Z,100480.38
2023-01-02T03:49:17.469Z,100479.25
2023-01-02T03:51:46.194Z,100480.09
2023-01-02T03:54:17.129Z,100480.94
2023-01-02T03:56:54.463Z,100471.03
2023-01-02T03:59:36.217Z,100477.44
2023-01-02T04:02:11.977Z,100474.78
2023-01-02T04:04:50.889Z,100475.47
2023-01-02T04:07:26.489Z,100476.31
2023-01-02T04:09:56.033Z,100473.22
2023-01-02T04:12:26.464Z,100473.78
2023-01-02T04:14:59.475Z,100457.88
2023-01-02T04:17:30.249Z,100465.78
2023-01-02T04:20:03.596Z,100462.16
2023-01-02T04:22:37.918Z,100464.81
2023-01-02T04:25:13.782Z,100457.53
2023-01-02T04:27:48.109Z,100452.25
2023-01-02T04:30:16.988Z,100457.53
2023-01-02T04:32:46.961Z,100446.69
2023-01-02T04:35:21.384Z,100450.16
2023-01-02T04:37:50.322Z,100452.81
2023-01-02T04:40:24.204Z,100445.16
2023-01-02T04:42:53.423Z,100443.78
2023-01-02T04:45:22.177Z,100435.84
2023-01-02T04:47:51.149Z,100437.78
2023-01-02T04:50:21.285Z,100442.41
2023-01-02T04:52:50.279Z,100436.41
2023-01-02T04:55:18.821Z,100436.69
2023-01-02T04:57:47.538Z,100441.31
2023-01-02T05:00:16.968Z,100444.81
2023-01-02T05:02:45.499Z,100442.59
2023-01-02T05:05:13.947Z,100434.78
2023-01-02T05:07:43.995Z,100445.22
2023-01-02T05:10:12.777Z,100438.81
2023-01-02T05:12:41.722Z,100442.28
2023-01-02T05:15:11.879Z,100440.34
2023-01-02T05:17:41.729Z,100445.50
2023-01-02T05:20:12.106Z,100435.59
2023-01-02T05:22:58.582Z,100431.13
2023-01-02T05:25:29.341Z,100429.16
2023-01-02T05:27:57.770Z,100437.25
2023-01-02T05:30:26.287Z,100434.44
2023-01-02T05:32:55.322Z,100428.88
2023-01-02T05:35:28.469Z,100425.53
2023-01-02T05:37:59.050Z,100420.50
2023-01-02T05:40:28.931Z,100425.50
2023-01-02T05:42:57.349Z,100427.16
2023-01-02T05:45:25.770Z,100421.72
2023-01-02T05:47:54.190Z,100430.22
2023-01-02T05:50:22.797Z,100431.03
2023-01-02T05:52:51.462Z,100422.56
2023-01-02T05:55:20.129Z,100423.25
2023-01-02T05:57:49.971Z,100415.13
2023-01-02T06:00:18.946Z,100425.72
2023-01-02T06:02:48.667Z,100415.31
2023-01-02T06:05:17.656Z,100406.28
2023-01-02T06:07:46.160Z,100403.25
2023-01-02T06:10:14.602Z,100402.13
2023-01-02T06:12:42.980Z,100398.09
2023-01-02T06:15:13.401Z,100401.56
2023-01-02T06:17:41.855Z,100399.78
2023-01-02T06:20:11.516Z,100391.84
2023-01-02T06:22:40.062Z,100394.91
2023-01-02T06:25:09.768Z,100379.97
2023-01-02T06:27:38.303Z,100396.16
2023-01-02T06:30:07.783Z,100391.38
2023-01-02T06:32:37.665Z,100386.47
2023-01-02T06:35:07.109Z,100386.66
2023-01-02T06:37:35.495Z,100384.50
2023-01-02T06:40:03.940Z,100383.81
2023-01-02T06:42:33.237Z,100381.25
2023-01-02T06:45:01.970Z,100374.19
2023-01-02T06:47:30.612Z,100376.91
2023-01-02T06:50:00.583Z,100372.97
2023-01-02T06:52:29.723Z,100375.94
2023-01-02T06:54:58.175Z,100391.16
2023-01-02T06:57:26.693Z,100389.78
2023-01-02T06:59:55.075Z,100382.75
2023-01-02T07:02:23.788Z,100380.69
2023-01-02T07:04:52.241Z,100372.00
2023-01-02T07:07:22.234Z,100383.03
2023-01-02T07:09:50.976Z,100384.31
2023-01-02T07:12:19.583Z,100382.41
2023-01-02T07:14:48.108Z,100383.91
2023-01-02T07:17:16.803Z,100368.88
2023-01-02T07:19:51.463Z,100371.34
2023-01-02T07:22:23.586Z,100373.31
2023-01-02T07:24:52.122Z,100374.84
2023-01-02T07:27:20.579Z,100374.28
2023-01-02T07:29:49.110Z,100374.59
2023-01-02T07:32:22.459Z,100388.22
2023-01-02T07:34:54.102Z,100393.81
2023-01-02T07:37:24.018Z,100400.78
2023-01-02T07:39:52.406Z,100397.31
2023-01-02T07:42:20.888Z,100392.03
2023-01-02T07:44:49.728Z,100389.81
2023-01-02T07:47:18.211Z,100384.81
2023-01-02T07:49:46.767Z,100399.72
2023-01-02T07:52:17.971Z,100396.66
2023-01-02T07:54:47.936Z,100393.44
2023-01-02T07:57:16.407Z,100393.13
2023-01-02T07:59:47.267Z,100391.47
2023-01-02T08:02:15.761Z,100392.63
2023-01-02T08:04:44.221Z,100386.75
2023-01-02T08:07:12.642Z,100400.69
2023-01-02T08:09:41.116Z,100411.00
2023-01-02T08:12:11.251Z,100402.25
2023-01-02T08:14:39.754Z,100406.28
2023-01-02T08:17:08.314Z,100404.91
2023-01-02T08:19:36.789Z,100413.13
2023-01-02T08:22:05.267Z,100389.00
2023-01-02T08:24:33.752Z,100391.53
2023-01-02T08:27:02.664Z,100397.34
2023-01-02T08:29:33.193Z,100396.09
2023-01-02T08:32:01.775Z,100388.41
2023-01-02T08:34:30.669Z,100391.28
2023-01-02T08:36:59.169Z,100384.69
2023-01-02T08:39:27.992Z,100388.13
2023-01-02T08:41:58.282Z,100388.25
2023-01-02T08:44:26.979Z,100382.66
2023-01-02T08:46:56.888Z,100390.09
2023-01-02T08:49:25.374Z,100379.66
2023-01-02T08:51:53.857Z,100372.31
2023-01-02T08:54:22.462Z,100356.69
2023-01-02T08:56:51.032Z,100376.63
2023-01-02T08:59:19.634Z,100381.03
2023-01-02T09:01:48.365Z,100379.13
2023-01-02T09:04:18.442Z,100377.88
2023-01-02T09:06:47.439Z,100380.41
2023-01-02T09:09:17.575Z,100377.81
2023-01-02T09:11:50.814Z,100369.75
2023-01-02T09:14:21.203Z,100363.69
2023-01-02T09:16:50.503Z,100363.19
2023-01-02T09:19:21.464Z,100362.44
2023-01-02T09:21:50.535Z,100357.63
2023-01-02T09:24:19.330Z,100352.34
2023-01-02T09:26:48.025Z,100354.38
2023-01-02T09:29:16.815Z,100339.78
2023-01-02T09:31:45.327Z,100353.94
2023-01-02T09:34:14.710Z,100355.78
2023-01-02T09:36:44.617Z,100362.47
2023-01-02T09:39:13.210Z,100366.00
2023-01-02T09:41:44.269Z,100348.25
2023-01-02T09:44:17.652Z,100350.75
2023-01-02T09:46:51.472Z,100350.63
2023-01-02T09:49:23.743Z,100338.66
2023-01-02T09:51:54.171Z,100345.97
2023-01-02T09:54:26.500Z,100350.28
2023-01-02T09:57:08.940Z,100362.41
2023-01-02T09:59:43.216Z,100349.97
2023-01-02T10:02:26.366Z,100350.63
2023-01-02T10:05:11.466Z,100339.34
2023-01-02T10:07:49.147Z,100340.34
2023-01-02T10:10:26.393Z,100347.66
2023-01-02T10:13:04.070Z,100366.31
2023-01-02T10:15:34.069Z,100353.00
2023-01-02T10:18:13.125Z,100351.81
2023-01-02T10:20:45.256Z,100351.66
2023-01-02T10:23:19.950Z,100365.31
2023-01-02T10:25:54.730Z,100364.66
2023-01-02T10:28:29.687Z,100376.97
2023-01-02T10:31:06.910Z,100372.78
2023-01-02T10:33:44.127Z,100377.25
2023-01-02T10:36:23.749Z,100397.19
2023-01-02T10:38:54.713Z,100375.22
2023-01-02T10:41:23.261Z,100382.91
2023-01-02T10:43:55.951Z,100396.44
2023-01-02T10:46:24.489Z,100388.59
2023-01-02T10:48:53.053Z,100381.63
2023-01-02T10:51:21.877Z,100377.97
2023-01-02T10:54:03.145Z,100388.47
2023-01-02T10:56:33.912Z,100383.63
2023-01-02T10:59:03.512Z,100385.81
2023-01-02T11:01:32.455Z,100392.94
2023-01-02T11:04:12.526Z,100388.91
2023-01-02T11:06:52.301Z,100384.59
2023-01-02T11:09:23.868Z,100372.78
2023-01-02T11:11:55.212Z,100358.94
2023-01-02T11:14:28.423Z,100371.63
2023-01-02T11:17:05.231Z,100374.78
2023-01-02T11:19:41.533Z,100375.63
2023-01-02T11:22:10.755Z,100366.97
2023-01-02T11:24:59.866Z,100370.28
2023-01-02T11:27:33.008Z,100367.47
2023-01-02T11:30:02.157Z,100357.47
2023-01-02T11:32:38.776Z,100332.63
2023-01-02T11:35:28.183Z,100336.94
2023-01-02T11:37:56.743Z,100318.47
2023-01-02T11:40:29.707Z,100323.28
2023-01-02T11:43:21.287Z,100325.94
2023-01-02T11:45:50.066Z,100324.28
2023-01-02T11:48:23.378Z,100330.28
2023-01-02T11:50:53.048Z,100320.16
2023-01-02T11:53:28.663Z,100338.28
2023-01-02T11:56:04.013Z,100327.28
2023-01-02T11:58:38.758Z,100323.59
2023-01-02T12:01:13.237Z,100317.94
2023-01-02T12:03:42.175Z,100318.94
2023-01-02T12:06:18.598Z,100322.78
2023-01-02T12:09:00.987Z,100317.63
2023-01-02T12:11:46.017Z,100321.94
2023-01-02T12:14:18.279Z,100310.47
2023-01-02T12:16:54.069Z,100321.81
2023-01-02T12:19:44.424Z,100317.47
2023-01-02T12:22:29.484Z,100318.63
2023-01-02T12:25:09.554Z,100308.00
2023-01-02T12:27:51.418Z,100305.19
2023-01-02T12:30:22.004Z,100320.84
2023-01-02T12:33:22.848Z,100331.50
2023-01-02T12:36:03.294Z,100332.66
2023-01-02T12:38:47.849Z,100319.69
2023-01-02T12:41:27.169Z,100336.16
2023-01-02T12:44:18.853Z,100324.53
2023-01-02T12:47:06.819Z,100320.69
2023-01-02T12:49:51.061Z,100317.69
2023-01-02T12:52:32.597Z,100331.53
2023-01-02T12:55:18.177Z,100334.66
2023-01-02T12:57:55.839Z,100326.00
2023-01-02T13:00:51.103Z,100324.00
2023-01-02T13:03:45.101Z,100327.19
2023-01-02T13:06:45.889Z,100320.03
2023-01-02T13:09:14.605Z,100328.34
2023-01-02T13:11:53.541Z,100323.69
2023-01-02T13:14:25.360Z,100308.53
2023-01-02T13:17:06.504Z,100306.03
2023-01-02T13:19:41.719Z,100304.03
2023-01-02T13:22:20.222Z,100298.56
2023-01-02T13:24:49.810Z,100295.03
2023-01-02T13:27:18.977Z,100294.56
2023-01-02T13:29:47.928Z,100301.22
2023-01-02T13:32:29.271Z,100319.38
2023-01-02T13:35:00.557Z,100319.19
2023-01-02T13:37:31.079Z,100312.69
2023-01-02T13:40:02.559Z,100316.84
2023-01-02T13:42:52.677Z,100318.84
2023-01-02T13:45:25.572Z,100325.19
2023-01-02T13:47:57.850Z,100327.19
2023-01-02T13:50:30.360Z,100310.03
2023-01-02T13:53:07.217Z,100315.69
2023-01-02T13:55:37.386Z,100332.53
2023-01-02T13:58:37.898Z,100323.53
2023-01-02T14:01:33.347Z,100324.16
2023-01-02T14:04:32.162Z,100340.69
2023-01-02T14:07:40.267Z,100339.34
2023-01-02T14:10:42.007Z,100343.00
2023-01-02T14:13:22.590Z,100348.00
2023-01-02T14:16:23.652Z,100348.34
2023-01-02T14:19:18.401Z,100337.84
2023-01-02T14:21:51.901Z,100347.16
2023-01-02T14:24:31.847Z,100345.50
2023-01-02T14:27:05.907Z,100341.69
2023-01-02T14:29:50.617Z,100354.00
2023-01-02T14:32:25.669Z,100343.50
2023-01-02T14:34:58.747Z,100347.34
2023-01-02T14:37:38.881Z,100339.69
2023-01-02T14:40:19.972Z,100350.00
2023-01-02T14:43:11.792Z,100351.78
2023-01-02T14:45:45.818Z,100363.28
2023-01-02T14:48:18.529Z,100343.97
2023-01-02T14:50:49.992Z,100353.28
2023-01-02T14:53:23.942Z,100351.13
2023-01-02T14:55:56.028Z,100338.13
2023-01-02T14:58:36.287Z,100359.59
2023-01-02T15:01:06.315Z,100360.75
2023-01-02T15:03:44.178Z,100362.94
2023-01-02T15:06:19.798Z,100357.28
2023-01-02T15:08:52.951Z,100353.94
2023-01-02T15:11:43.003Z,100367.06
2023-01-02T15:14:19.025Z,100371.06
2023-01-02T15:16:54.839Z,100385.00
2023-01-02T15:19:26.801Z,100374.38
2023-01-02T15:21:56.200Z,100372.69
2023-01-02T15:24:30.361Z,100367.47
2023-01-02T15:27:14.599Z,100366.16
2023-01-02T15:29:47.632Z,100374.66
2023-01-02T15:32:21.011Z,100390.25
2023-01-02T15:34:51.810Z,100389.72
2023-01-02T15:37:23.335Z,100400.03
2023-01-02T15:39:56.529Z,100402.31
2023-01-02T15:42:45.465Z,100405.31
2023-01-02T15:45:17.235Z,100408.97
2023-01-02T15:47:48.290Z,100425.22
2023-01-02T15:50:20.716Z,100419.56
2023-01-02T15:52:51.362Z,100411.41
2023-01-02T15:55:22.444Z,100416.41
2023-01-02T15:57:55.575Z,100405.91
2023-01-02T16:00:36.818Z,100406.22
2023-01-02T16:03:06.333Z,100409.88
2023-01-02T16:05:48.209Z,100403.06
2023-01-02T16:08:21.740Z,100411.50
2023-01-02T16:11:01.550Z,100407.16
2023-01-02T16:13:49.808Z,100412.66
2023-01-02T16:16:20.255Z,100413.66
2023-01-02T16:18:51.994Z,100394.47
2023-01-02T16:21:21.323Z,100409.13
2023-01-02T16:23:54.101Z,100402.66
2023-01-02T16:26:31.066Z,100403.47
2023-01-02T16:29:00.119Z,100407.13
2023-01-02T16:31:29.755Z,100406.63
2023-01-02T16:34:16.362Z,100403.88
2023-01-02T16:36:45.172Z,100388.25
2023-01-02T16:39:42.196Z,100409.22
2023-01-02T16:42:29.106Z,100400.03
2023-01-02T16:44:58.540Z,100400.88
2023-01-02T16:47:33.593Z,100402.53
2023-01-02T16:50:02.353Z,100402.53
2023-01-02T16:52:31.213Z,100400.88
2023-01-02T16:54:59.897Z,100403.97
2023-01-02T16:57:30.657Z,100401.84
2023-01-02T16:59:59.162Z,100409.66
2023-01-02T17:02:27.977Z,100405.34
2023-01-02T17:04:56.528Z,100405.41
2023-01-02T17:07:25.500Z,100407.41
2023-01-02T17:09:54.045Z,100413.56
2023-01-02T17:12:23.636Z,100406.59
2023-01-02T17:14:53.847Z,100398.06
2023-01-02T17:17:22.432Z,100393.94
2023-01-02T17:19:51.162Z,100394.06
2023-01-02T17:22:19.723Z,100374.91
2023-01-02T17:24:48.276Z,100395.22
2023-01-02T17:27:16.732Z,100381.41
2023-01-02T17:29:45.678Z,100385.91
2023-01-02T17:32:15.751Z,100394.69
2023-01-02T17:34:44.217Z,100402.81
2023-01-02T17:37:12.883Z,100407.47
2023-01-02T17:39:41.509Z,100388.94
2023-01-02T17:42:11.513Z,100403.06
2023-01-02T17:44:40.379Z,100398.88
2023-01-02T17:47:57.870Z,100414.31
2023-01-02T17:49:59.112Z,100429.56
2023-01-02T17:52:27.511Z,100427.88
2023-01-02T17:54:56.908Z,100432.81
2023-01-02T17:57:26.268Z,100426.84
2023-01-02T17:59:54.783Z,100425.16
2023-01-02T18:02:23.473Z,100423.81
2023-01-02T18:04:55.184Z,100414.00
2023-01-02T18:07:25.495Z,100411.50
2023-01-02T18:10:12.569Z,100424.09
2023-01-02T18:12:43.459Z,100422.19
2023-01-02T18:15:15.616Z,100422.38
2023-01-02T18:17:44.610Z,100420.00
2023-01-02T18:20:15.276Z,100411.50
2023-01-02T18:22:50.176Z,100414.31
2023-01-02T18:25:21.676Z,100410.00
2023-01-02T18:27:50.358Z,100414.94
2023-01-02T18:30:21.510Z,100430.84
2023-01-02T18:32:51.669Z,100429.47
2023-01-02T18:38:21.233Z,100425.47
2023-01-02T18:40:49.735Z,100431.03
2023-01-02T18:43:23.636Z,100445.28
2023-01-02T18:45:54.754Z,100444.47
2023-01-02T18:48:24.752Z,100444.59
2023-01-02T18:51:01.575Z,100452.56
2023-01-02T18:53:38.205Z,100451.75
2023-01-02T18:56:20.501Z,100456.84
2023-01-02T18:58:56.144Z,100460.81
2023-01-02T19:01:28.157Z,100479.59
2023-01-02T19:04:14.891Z,100476.84
2023-01-02T19:06:49.841Z,100488.03
2023-01-02T19:09:21.574Z,100495.16
2023-01-02T19:12:12.680Z,100491.13
2023-01-02T19:14:42.632Z,100492.53
2023-01-02T19:17:21.368Z,100495.88
2023-01-02T19:19:50.313Z,100490.34
2023-01-02T19:22:21.387Z,100500.41
2023-01-02T19:24:51.809Z,100502.38
2023-01-02T19:27:25.818Z,100490.94
2023-01-02T19:29:55.087Z,100481.44
2023-01-02T19:32:28.223Z,100491.47
2023-01-02T19:34:58.995Z,100482.81
2023-01-02T19:37:39.381Z,100479.78
2023-01-02T19:40:19.053Z,100492.34
2023-01-02T19:42:49.014Z,100515.22
2023-01-02T19:45:18.964Z,100508.25
2023-01-02T19:47:48.360Z,100514.09
2023-01-02T19:50:21.411Z,100512.03
2023-01-02T19:52:50.104Z,100513.88
2023-01-02T19:55:20.434Z,100512.19
2023-01-02T19:57:52.085Z,100507.44
2023-01-02T20:00:21.417Z,100495.44
2023-01-02T20:02:51.717Z,100491.81
2023-01-02T20:05:22.512Z,100503.00
2023-01-02T20:07:52.280Z,100509.97
2023-01-02T20:10:22.455Z,100513.06
2023-01-02T20:12:51.475Z,100519.88
2023-01-02T20:15:23.719Z,100530.19
2023-01-02T20:17:53.631Z,100540.78
2023-01-02T20:20:23.370Z,100538.81
2023-01-02T20:22:52.905Z,100539.47
2023-01-02T20:25:26.748Z,100547.84
2023-01-02T20:27:56.574Z,100549.41
2023-01-02T20:30:25.589Z,100546.75
2023-01-02T20:32:54.809Z,100538.97
2023-01-02T20:35:24.007Z,100543.41
2023-01-02T20:37:52.554Z,100545.66
2023-01-02T20:40:22.405Z,100543.69
2023-01-02T20:42:50.989Z,100558.63
2023-01-02T20:45:19.594Z,100553.50
2023-01-02T20:47:48.111Z,100556.97
2023-01-02T20:50:17.791Z,100559.78
2023-01-02T20:52:46.237Z,100551.81
2023-01-02T20:55:15.149Z,100551.66
2023-01-02T20:57:47.190Z,100548.44
2023-01-02T21:00:20.619Z,100546.50
2023-01-02T21:02:51.152Z,100553.50
2023-01-02T21:05:19.768Z,100549.00
2023-01-02T21:07:48.285Z,100550.97
2023-01-02T21:10:16.985Z,100566.59
2023-01-02T21:13:02.487Z,100569.94
2023-01-02T21:15:52.038Z,100565.75
2023-01-02T21:18:23.493Z,100565.22
2023-01-02T21:20:54.278Z,100568.25
2023-01-02T21:23:24.349Z,100560.59
2023-01-02T21:25:53.788Z,100567.97
2023-01-02T21:28:24.624Z,100578.56
2023-01-02T21:30:53.424Z,100571.31
2023-01-02T21:33:24.881Z,100573.97
2023-01-02T21:35:55.416Z,100568.53
2023-01-02T21:38:25.202Z,100563.75
2023-01-02T21:40:54.341Z,100562.66
2023-01-02T21:43:24.990Z,100583.69
2023-01-02T21:45:53.550Z,100578.28
2023-01-02T21:48:21.957Z,100575.16
2023-01-02T21:50:50.404Z,100566.22
2023-01-02T21:53:18.807Z,100566.91
2023-01-02T21:55:47.265Z,100575.03
2023-01-02T21:58:15.773Z,100562.88
2023-01-02T22:00:45.751Z,100555.50
2023-01-02T22:03:14.487Z,100572.50
2023-01-02T22:05:43.034Z,100573.50
2023-01-02T22:08:11.632Z,100570.16
2023-01-02T22:10:40.120Z,100580.47
2023-01-02T22:13:08.505Z,100583.13
2023-01-02T22:15:37.044Z,100590.38
2023-01-02T22:18:07.186Z,100600.00
2023-01-02T22:20:35.958Z,100600.88
2023-01-02T22:23:05.417Z,100601.00
2023-01-02T22:25:33.980Z,100614.94
2023-01-02T22:28:02.490Z,100613.97
2023-01-02T22:30:34.759Z,100613.16
2023-01-02T22:33:04.247Z,100614.66
2023-01-02T22:35:34.255Z,100605.88
2023-01-02T22:38:02.813Z,100614.94
2023-01-02T22:40:31.421Z,100608.94
2023-01-02T22:43:02.137Z,100614.53
2023-01-02T22:45:36.151Z,100610.09
2023-01-02T22:48:08.864Z,100612.06
2023-01-02T22:50:44.180Z,100615.84
2023-01-02T22:53:20.004Z,100609.56
2023-01-02T22:55:48.891Z,100612.50
2023-01-02T22:58:17.826Z,100624.22
2023-01-02T23:00:48.099Z,100611.22
2023-01-02T23:03:18.275Z,100611.22
2023-01-02T23:05:48.596Z,100614.16
2023-01-02T23:08:17.323Z,100607.47
2023-01-02T23:10:46.395Z,100598.53
2023-01-02T23:13:14.964Z,100606.50
2023-01-02T23:15:57.105Z,100621.72
2023-01-02T23:18:42.879Z,100622.97
2023-01-02T23:21:13.090Z,100619.34
2023-01-02T23:23:41.808Z,100621.31
2023-01-02T23:26:10.820Z,100630.78
2023-01-02T23:29:05.950Z,100631.78
2023-01-02T23:31:28.280Z,100628.44
2023-01-02T23:33:57.023Z,100638.06
2023-01-02T23:36:27.567Z,100633.56
2023-01-02T23:38:56.709Z,100639.84
2023-01-02T23:41:25.619Z,100646.84
2023-01-02T23:43:54.406Z,100652.28
2023-01-02T23:46:23.097Z,100656.44
2023-01-02T23:48:51.568Z,100663.72
2023-01-02T23:51:19.953Z,100677.66
2023-01-02T23:53:50.141Z,100681.88
2023-01-02T23:56:21.346Z,100686.03
2023-01-02T23:58:50.799Z,100694.16
